Haldeman, Kentucky
Current Conditions -  °F | °C
As of 10:50 AM on Tuesday 21 Oct 2014 (Local Time) from KSYM Reporting Station
Overcast Overcast  
Wind Chill: 54°   Ceiling: 1500
Heat Index: 54°   Visibility: 10mi
Dew Point: 46°   Wind: 10mph
Humidity: 77%   Direction: 300°WNW
Pressure: 30.03"   Gusts: NA
Location:  38.25°N, 83.32°W
Report Text: KSYM 211450Z AUTO 30009KT 10SM BKN015 BKN019 OVC055 12/08 A3003 RMK AO2
Loading
Personal Weather Stations






























Interactive Weather Map
Tropical Storm Tracking
New forecast layout! Learn more

10-Day Weather Forecast

Advertisements
Track Severe Weather on mobile